createdAt,value
2018-11-26T00:02:05.564Z,98330.14
2018-11-26T00:04:34.357Z,98328.34
2018-11-26T00:07:03.391Z,98324.98
2018-11-26T00:09:33.591Z,98320.56
2018-11-26T00:12:03.975Z,98322.08
2018-11-26T00:14:32.808Z,98326.09
2018-11-26T00:17:02.999Z,98325.26
2018-11-26T00:19:32.500Z,98327.05
2018-11-26T00:22:01.147Z,98326.00
2018-11-26T00:24:30.400Z,98327.11
2018-11-26T00:27:00.095Z,98324.30
2018-11-26T00:29:28.949Z,98321.12
2018-11-26T00:31:58.039Z,98316.31
2018-11-26T00:34:27.165Z,98316.41
2018-11-26T00:36:55.765Z,98309.37
2018-11-26T00:39:25.284Z,98307.48
2018-11-26T00:41:53.879Z,98309.39
2018-11-26T00:44:22.504Z,98315.09
2018-11-26T00:46:51.130Z,98313.03
2018-11-26T00:49:19.742Z,98308.05
2018-11-26T00:51:48.717Z,98312.20
2018-11-26T00:54:17.602Z,98315.47
2018-11-26T00:56:46.907Z,98312.09
2018-11-26T00:59:15.817Z,98309.47
2018-11-26T01:01:45.106Z,98314.34
2018-11-26T01:04:14.291Z,98306.45
2018-11-26T01:06:42.884Z,98305.88
2018-11-26T01:09:11.914Z,98307.97
2018-11-26T01:11:42.837Z,98306.55
2018-11-26T01:14:12.230Z,98303.07
2018-11-26T01:16:41.161Z,98300.80
2018-11-26T01:19:10.490Z,98301.55
2018-11-26T01:21:39.038Z,98297.52
2018-11-26T01:24:08.746Z,98300.52
2018-11-26T01:26:38.382Z,98298.09
2018-11-26T01:29:07.339Z,98292.63
2018-11-26T01:31:36.487Z,98303.59
2018-11-26T01:34:06.140Z,98299.67
2018-11-26T01:36:35.226Z,98295.64
2018-11-26T01:39:04.019Z,98294.98
2018-11-26T01:41:32.852Z,98298.83
2018-11-26T01:44:02.854Z,98295.08
2018-11-26T01:46:32.855Z,98288.11
2018-11-26T01:49:01.410Z,98295.71
2018-11-26T01:51:31.176Z,98295.71
2018-11-26T01:53:59.954Z,98297.78
2018-11-26T01:56:29.104Z,98302.56
2018-11-26T01:58:58.392Z,98310.76
2018-11-26T02:01:26.991Z,98307.54
2018-11-26T02:03:56.024Z,98305.28
2018-11-26T02:06:24.972Z,98307.64
2018-11-26T02:08:54.178Z,98303.03
2018-11-26T02:11:23.363Z,98302.28
2018-11-26T02:13:53.258Z,98306.50
2018-11-26T02:16:22.191Z,98303.44
2018-11-26T02:18:51.066Z,98300.97
2018-11-26T02:21:20.541Z,98296.09
2018-11-26T02:23:49.116Z,98289.70
2018-11-26T02:26:17.995Z,98291.59
2018-11-26T02:28:46.604Z,98292.34
2018-11-26T02:31:15.837Z,98293.55
2018-11-26T02:33:45.257Z,98294.05
2018-11-26T02:36:14.253Z,98292.71
2018-11-26T02:38:44.005Z,98295.71
2018-11-26T02:41:13.107Z,98301.19
2018-11-26T02:43:41.912Z,98293.75
2018-11-26T02:46:11.444Z,98286.55
2018-11-26T02:48:40.505Z,98283.80
2018-11-26T02:51:10.413Z,98280.70
2018-11-26T02:53:39.700Z,98285.87
2018-11-26T02:56:08.936Z,98287.38
2018-11-26T02:58:38.069Z,98293.83
2018-11-26T03:01:08.361Z,98289.71
2018-11-26T03:03:37.558Z,98287.66
2018-11-26T03:06:06.708Z,98287.10
2018-11-26T03:08:37.899Z,98294.53
2018-11-26T03:11:08.089Z,98292.75
2018-11-26T03:13:38.109Z,98294.23
2018-11-26T03:16:07.243Z,98295.83
2018-11-26T03:18:36.922Z,98302.68
2018-11-26T03:21:05.990Z,98298.94
2018-11-26T03:23:35.180Z,98294.42
2018-11-26T03:26:03.725Z,98298.07
2018-11-26T03:28:32.310Z,98289.55
2018-11-26T03:31:01.664Z,98295.54
2018-11-26T03:33:30.680Z,98299.38
2018-11-26T03:35:59.489Z,98298.83
2018-11-26T03:39:07.353Z,98302.58
2018-11-26T03:41:36.589Z,98305.78
2018-11-26T03:44:05.689Z,98303.15
2018-11-26T03:46:35.520Z,98307.86
2018-11-26T03:49:04.112Z,98320.62
2018-11-26T03:51:33.692Z,98314.78
2018-11-26T03:54:04.176Z,98319.10
2018-11-26T03:56:33.366Z,98317.04
2018-11-26T03:59:02.859Z,98315.94
2018-11-26T04:01:32.109Z,98314.78
2018-11-26T04:04:01.030Z,98312.07
2018-11-26T04:06:29.928Z,98312.35
2018-11-26T04:08:59.434Z,98321.26
2018-11-26T04:11:28.748Z,98313.84
2018-11-26T04:13:57.341Z,98313.84
2018-11-26T04:16:27.001Z,98314.80
2018-11-26T04:18:56.823Z,98313.77
2018-11-26T04:21:27.219Z,98314.02
2018-11-26T04:23:56.573Z,98307.45
2018-11-26T04:26:25.728Z,98303.58
2018-11-26T04:28:54.869Z,98312.03
2018-11-26T04:31:24.061Z,98317.41
2018-11-26T04:33:55.198Z,98313.71
2018-11-26T04:36:24.769Z,98315.34
2018-11-26T04:38:53.995Z,98325.48
2018-11-26T04:41:23.073Z,98318.97
2018-11-26T04:43:52.878Z,98313.06
2018-11-26T04:46:22.060Z,98316.44
2018-11-26T04:48:51.268Z,98314.77
2018-11-26T04:51:21.069Z,98310.24
2018-11-26T04:53:51.237Z,98303.52
2018-11-26T04:56:20.900Z,98306.39
2018-11-26T04:58:50.549Z,98301.98
2018-11-26T05:01:19.368Z,98299.30
2018-11-26T05:03:49.390Z,98301.86
2018-11-26T05:06:18.279Z,98299.45
2018-11-26T05:08:46.839Z,98294.86
2018-11-26T05:11:15.636Z,98300.70
2018-11-26T05:13:44.408Z,98308.50
2018-11-26T05:16:14.529Z,98305.49
2018-11-26T05:18:43.480Z,98310.00
2018-11-26T05:21:12.460Z,98308.59
2018-11-26T05:23:41.976Z,98308.97
2018-11-26T05:26:10.682Z,98305.12
2018-11-26T05:28:39.579Z,98303.64
2018-11-26T05:31:08.733Z,98298.16
2018-11-26T05:33:37.757Z,98295.77
2018-11-26T05:36:06.653Z,98296.45
2018-11-26T05:38:35.460Z,98291.56
2018-11-26T05:41:04.279Z,98289.45
2018-11-26T05:43:33.497Z,98287.56
2018-11-26T05:46:02.882Z,98294.52
2018-11-26T05:48:33.371Z,98288.89
2018-11-26T05:51:02.300Z,98285.01
2018-11-26T05:53:31.676Z,98296.36
2018-11-26T05:56:00.256Z,98292.14
2018-11-26T05:58:29.378Z,98291.58
2018-11-26T06:00:59.144Z,98298.15
2018-11-26T06:03:28.195Z,98294.30
2018-11-26T06:05:57.152Z,98289.11
2018-11-26T06:08:26.255Z,98289.89
2018-11-26T06:10:55.416Z,98292.58
2018-11-26T06:13:25.235Z,98296.34
2018-11-26T06:15:54.983Z,98296.36
2018-11-26T06:18:23.914Z,98299.53
2018-11-26T06:20:52.500Z,98304.94
2018-11-26T06:23:22.090Z,98303.56
2018-11-26T06:25:53.285Z,98302.44
2018-11-26T06:28:23.377Z,98307.13
2018-11-26T06:30:52.893Z,98304.88
2018-11-26T06:33:29.843Z,98304.74
2018-11-26T06:35:58.536Z,98303.24
2018-11-26T06:38:32.327Z,98310.41
2018-11-26T06:41:01.919Z,98306.72
2018-11-26T06:43:32.648Z,98308.44
2018-11-26T06:46:06.664Z,98307.27
2018-11-26T06:48:43.447Z,98309.19
2018-11-26T06:51:12.858Z,98310.28
2018-11-26T06:53:43.949Z,98315.16
2018-11-26T06:56:14.980Z,98308.22
2018-11-26T06:58:45.571Z,98312.62
2018-11-26T07:01:21.369Z,98308.02
2018-11-26T07:03:52.331Z,98317.69
2018-11-26T07:06:21.565Z,98322.00
2018-11-26T07:08:54.069Z,98331.42
2018-11-26T07:11:30.170Z,98331.89
2018-11-26T07:14:00.128Z,98331.33
2018-11-26T07:16:30.625Z,98333.02
2018-11-26T07:18:59.705Z,98337.65
2018-11-26T07:21:28.481Z,98342.40
2018-11-26T07:23:58.833Z,98342.44
2018-11-26T07:26:28.875Z,98343.66
2018-11-26T07:28:59.109Z,98342.72
2018-11-26T07:31:28.532Z,98348.85
2018-11-26T07:34:02.121Z,98353.16
2018-11-26T07:36:35.132Z,98346.50
2018-11-26T07:39:04.998Z,98356.64
2018-11-26T07:41:33.778Z,98361.98
2018-11-26T07:44:03.279Z,98365.55
2018-11-26T07:46:33.479Z,98367.24
2018-11-26T07:49:03.301Z,98367.69
2018-11-26T07:51:32.745Z,98368.06
2018-11-26T07:54:03.469Z,98369.66
2018-11-26T07:56:32.453Z,98373.34
2018-11-26T07:59:05.514Z,98377.82
2018-11-26T08:01:35.069Z,98381.30
2018-11-26T08:04:06.807Z,98372.94
2018-11-26T08:06:35.916Z,98370.59
2018-11-26T08:09:06.281Z,98373.31
2018-11-26T08:11:35.716Z,98380.27
2018-11-26T08:14:06.551Z,98383.55
2018-11-26T08:16:35.138Z,98382.83
2018-11-26T08:19:03.957Z,98385.33
2018-11-26T08:21:33.776Z,98391.56
2018-11-26T08:24:03.836Z,98392.31
2018-11-26T08:26:34.729Z,98394.03
2018-11-26T08:29:04.708Z,98393.34
2018-11-26T08:31:36.265Z,98401.84
2018-11-26T08:34:07.016Z,98402.13
2018-11-26T08:36:45.457Z,98408.42
2018-11-26T08:39:22.724Z,98406.95
2018-11-26T08:41:52.852Z,98413.34
2018-11-26T08:44:28.665Z,98416.44
2018-11-26T08:47:04.633Z,98417.19
2018-11-26T08:49:34.947Z,98422.67
2018-11-26T08:52:04.453Z,98424.52
2018-11-26T08:54:34.410Z,98423.56
2018-11-26T08:57:03.460Z,98422.91
2018-11-26T08:59:33.617Z,98418.69
2018-11-26T09:02:02.434Z,98433.23
2018-11-26T09:04:34.331Z,98430.30
2018-11-26T09:07:03.423Z,98425.86
2018-11-26T09:09:32.959Z,98432.77
2018-11-26T09:12:00.980Z,98432.24
2018-11-26T09:14:32.638Z,98432.20
2018-11-26T09:17:02.947Z,98434.45
2018-11-26T09:19:33.038Z,98438.22
2018-11-26T09:22:10.243Z,98446.66
2018-11-26T09:24:43.904Z,98441.31
2018-11-26T09:27:19.412Z,98448.92
2018-11-26T09:29:51.430Z,98451.12
2018-11-26T09:32:29.977Z,98455.81
2018-11-26T09:34:59.995Z,98455.20
2018-11-26T09:37:33.949Z,98461.53
2018-11-26T09:40:10.072Z,98455.81
2018-11-26T09:42:44.870Z,98453.56
2018-11-26T09:45:20.090Z,98451.86
2018-11-26T09:47:50.049Z,98457.78
2018-11-26T09:50:21.670Z,98451.96
2018-11-26T09:52:56.627Z,98461.39
2018-11-26T09:55:32.170Z,98457.50
2018-11-26T09:58:08.154Z,98458.16
2018-11-26T10:00:40.727Z,98462.10
2018-11-26T10:03:11.895Z,98468.11
2018-11-26T10:05:51.200Z,98465.10
2018-11-26T10:08:21.385Z,98458.53
2018-11-26T10:11:00.446Z,98463.60
2018-11-26T10:13:29.245Z,98463.60
2018-11-26T10:16:04.798Z,98460.41
2018-11-26T10:18:34.014Z,98464.27
2018-11-26T10:21:04.728Z,98464.02
2018-11-26T10:23:33.790Z,98458.95
2018-11-26T10:26:03.417Z,98463.45
2018-11-26T10:28:34.175Z,98455.84
2018-11-26T10:31:05.022Z,98453.81
2018-11-26T10:33:36.302Z,98453.44
2018-11-26T10:36:07.594Z,98448.09
2018-11-26T10:38:37.300Z,98448.74
2018-11-26T10:41:11.192Z,98454.75
2018-11-26T10:43:40.357Z,98451.75
2018-11-26T10:46:15.765Z,98455.50
2018-11-26T10:48:45.257Z,98448.09
2018-11-26T10:51:15.355Z,98457.01
2018-11-26T10:53:45.354Z,98456.09
2018-11-26T10:56:14.755Z,98456.20
2018-11-26T10:58:43.648Z,98453.09
2018-11-26T11:01:17.692Z,98455.28
2018-11-26T11:03:46.531Z,98455.16
2018-11-26T11:06:15.384Z,98451.41
2018-11-26T11:08:44.907Z,98450.19
2018-11-26T11:11:13.445Z,98452.13
2018-11-26T11:13:43.173Z,98445.73
2018-11-26T11:16:13.613Z,98446.39
2018-11-26T11:18:42.440Z,98444.23
2018-11-26T11:21:17.047Z,98445.08
2018-11-26T11:23:46.361Z,98455.41
2018-11-26T11:26:29.937Z,98453.72
2018-11-26T11:29:00.663Z,98451.47
2018-11-26T11:34:08.411Z,98457.53
2018-11-26T11:36:36.966Z,98457.53
2018-11-26T11:39:12.019Z,98452.28
2018-11-26T11:41:47.586Z,98456.13
2018-11-26T11:44:31.478Z,98456.98
2018-11-26T11:47:07.537Z,98452.59
2018-11-26T11:49:45.431Z,98456.25
2018-11-26T11:52:15.389Z,98456.38
2018-11-26T11:54:47.667Z,98456.66
2018-11-26T11:57:29.643Z,98457.22
2018-11-26T12:00:08.242Z,98454.81
2018-11-26T12:02:39.968Z,98454.43
2018-11-26T12:05:10.543Z,98458.69
2018-11-26T12:07:39.158Z,98459.31
2018-11-26T12:10:09.819Z,98458.00
2018-11-26T12:12:39.852Z,98462.73
2018-11-26T12:15:10.431Z,98460.84
2018-11-26T12:17:39.383Z,98459.06
2018-11-26T12:20:09.798Z,98461.85
2018-11-26T12:22:38.705Z,98467.05
2018-11-26T12:25:08.870Z,98464.11
2018-11-26T12:27:38.525Z,98459.72
2018-11-26T12:30:24.833Z,98462.94
2018-11-26T12:32:54.488Z,98461.72
2018-11-26T12:35:24.248Z,98460.70
2018-11-26T12:37:53.076Z,98455.99
2018-11-26T12:40:25.456Z,98460.78
2018-11-26T12:42:55.551Z,98454.87
2018-11-26T12:45:28.222Z,98458.45
2018-11-26T12:47:56.873Z,98454.58
2018-11-26T12:50:25.768Z,98460.09
2018-11-26T12:52:54.961Z,98462.56
2018-11-26T12:55:24.063Z,98451.83
2018-11-26T12:57:53.633Z,98457.09
2018-11-26T13:00:25.304Z,98460.63
2018-11-26T13:02:59.043Z,98458.76
2018-11-26T13:05:27.633Z,98460.35
2018-11-26T13:07:57.157Z,98449.76
2018-11-26T13:10:26.165Z,98464.13
2018-11-26T13:12:55.563Z,98457.19
2018-11-26T13:15:25.495Z,98464.25
2018-11-26T13:17:59.607Z,98458.42
2018-11-26T13:20:29.433Z,98463.52
2018-11-26T13:22:58.088Z,98465.40
2018-11-26T13:25:30.725Z,98461.92
2018-11-26T13:28:29.644Z,98465.87
2018-11-26T13:31:11.506Z,98460.94
2018-11-26T13:33:58.564Z,98460.94
2018-11-26T13:36:34.146Z,98472.78
2018-11-26T13:42:06.519Z,98470.07
2018-11-26T13:44:41.889Z,98475.22
2018-11-26T13:47:23.067Z,98475.59
2018-11-26T13:50:09.566Z,98482.05
2018-11-26T13:52:48.951Z,98475.48
2018-11-26T13:55:27.414Z,98482.43
2018-11-26T13:58:04.100Z,98483.00
2018-11-26T14:00:34.328Z,98489.91
2018-11-26T14:03:14.426Z,98491.70
2018-11-26T14:05:49.553Z,98494.58
2018-11-26T14:08:18.183Z,98493.26
2018-11-26T14:10:57.221Z,98492.14
2018-11-26T14:13:32.839Z,98496.83
2018-11-26T14:16:03.758Z,98493.79
2018-11-26T14:18:38.634Z,98493.45
2018-11-26T14:21:16.695Z,98496.64
2018-11-26T14:23:55.949Z,98498.89
2018-11-26T14:26:24.605Z,98506.31
2018-11-26T14:29:01.720Z,98505.94
2018-11-26T14:31:38.842Z,98510.50
2018-11-26T14:34:12.261Z,98510.27
2018-11-26T14:36:48.430Z,98512.29
2018-11-26T14:39:31.672Z,98515.10
2018-11-26T14:42:10.177Z,98513.55
2018-11-26T14:44:47.545Z,98515.67
2018-11-26T14:47:22.004Z,98524.45
2018-11-26T14:49:52.394Z,98517.96
2018-11-26T14:52:26.795Z,98524.82
2018-11-26T14:54:58.335Z,98527.48
2018-11-26T14:57:32.857Z,98526.31
2018-11-26T15:00:03.978Z,98522.84
2018-11-26T15:02:51.204Z,98529.78
2018-11-26T15:05:23.935Z,98530.26
2018-11-26T15:07:59.015Z,98524.16
2018-11-26T15:10:28.666Z,98536.16
2018-11-26T15:13:01.487Z,98533.25
2018-11-26T15:15:33.917Z,98535.88
2018-11-26T15:18:05.700Z,98541.07
2018-11-26T15:20:40.463Z,98532.81
2018-11-26T15:23:13.074Z,98541.91
2018-11-26T15:25:41.887Z,98551.11
2018-11-26T15:28:31.786Z,98548.05
2018-11-26T15:31:06.275Z,98553.85
2018-11-26T15:36:16.117Z,98553.01
2018-11-26T15:38:45.329Z,98561.11
2018-11-26T15:41:15.422Z,98556.20
2018-11-26T15:43:44.987Z,98562.69
2018-11-26T15:46:13.602Z,98560.23
2018-11-26T15:48:42.503Z,98562.88
2018-11-26T15:51:11.393Z,98561.03
2018-11-26T15:53:40.723Z,98566.82
2018-11-26T15:56:09.647Z,98561.23
2018-11-26T15:58:39.257Z,98554.17
2018-11-26T16:01:08.347Z,98553.34
2018-11-26T16:03:38.660Z,98554.31
2018-11-26T16:06:07.554Z,98561.34
2018-11-26T16:08:36.320Z,98558.42
2018-11-26T16:11:05.614Z,98570.53
2018-11-26T16:13:35.258Z,98570.48
2018-11-26T16:16:07.403Z,98569.22
2018-11-26T16:18:42.981Z,98568.44
2018-11-26T16:21:16.535Z,98576.41
2018-11-26T16:23:46.197Z,98580.73
2018-11-26T16:26:15.754Z,98590.09
2018-11-26T16:28:47.130Z,98587.30
2018-11-26T16:31:18.313Z,98587.67
2018-11-26T16:33:58.587Z,98586.91
2018-11-26T16:36:27.703Z,98591.23
2018-11-26T16:38:58.006Z,98592.00
2018-11-26T16:41:28.632Z,98593.78
2018-11-26T16:44:04.586Z,98594.62
2018-11-26T16:46:35.768Z,98601.66
2018-11-26T16:49:12.602Z,98602.04
2018-11-26T16:51:45.813Z,98602.20
2018-11-26T16:57:02.929Z,98600.67
2018-11-26T16:59:35.487Z,98609.61
2018-11-26T17:02:11.881Z,98614.47
2018-11-26T17:04:42.427Z,98615.19
2018-11-26T17:07:12.986Z,98615.78
2018-11-26T17:09:43.278Z,98618.88
2018-11-26T17:12:19.502Z,98620.42
2018-11-26T17:14:48.836Z,98617.42
2018-11-26T17:17:17.940Z,98620.17
2018-11-26T17:19:58.910Z,98623.34
2018-11-26T17:22:32.796Z,98629.98
2018-11-26T17:25:02.615Z,98630.44
2018-11-26T17:27:37.153Z,98632.84
2018-11-26T17:30:16.314Z,98630.28
2018-11-26T17:32:46.287Z,98637.28
2018-11-26T17:35:16.368Z,98639.60
2018-11-26T17:37:52.051Z,98637.91
2018-11-26T17:40:47.108Z,98642.31
2018-11-26T17:43:16.179Z,98642.56
2018-11-26T17:45:45.157Z,98646.04
2018-11-26T17:48:29.124Z,98647.50
2018-11-26T17:51:00.414Z,98655.06
2018-11-26T17:53:33.097Z,98653.91
2018-11-26T17:56:08.224Z,98664.16
2018-11-26T17:58:43.318Z,98671.84
2018-11-26T18:01:25.216Z,98674.92
2018-11-26T18:03:56.156Z,98681.33
2018-11-26T18:06:25.057Z,98681.02
2018-11-26T18:08:54.814Z,98688.38
2018-11-26T18:11:26.459Z,98689.54
2018-11-26T18:14:05.818Z,98690.39
2018-11-26T18:16:40.258Z,98689.42
2018-11-26T18:22:02.169Z,98701.91
2018-11-26T18:24:50.255Z,98704.09
2018-11-26T18:27:22.299Z,98704.81
2018-11-26T18:29:58.463Z,98712.14
2018-11-26T18:32:31.497Z,98710.20
2018-11-26T18:35:02.200Z,98722.77
2018-11-26T18:37:31.214Z,98715.84
2018-11-26T18:40:07.657Z,98717.23
2018-11-26T18:42:51.761Z,98718.54
2018-11-26T18:45:29.715Z,98718.19
2018-11-26T18:48:03.626Z,98719.96
2018-11-26T18:50:32.766Z,98718.09
2018-11-26T18:53:01.368Z,98719.33
2018-11-26T18:55:30.777Z,98718.55
2018-11-26T18:58:00.088Z,98723.83
2018-11-26T19:00:32.003Z,98731.19
2018-11-26T19:03:01.810Z,98737.39
2018-11-26T19:05:30.685Z,98742.69
2018-11-26T19:08:00.198Z,98738.31
2018-11-26T19:10:31.204Z,98742.38
2018-11-26T19:13:16.208Z,98750.69
2018-11-26T19:16:13.563Z,98743.94
2018-11-26T19:19:07.424Z,98760.31
2018-11-26T19:21:45.606Z,98771.64
2018-11-26T19:24:26.964Z,98771.11
2018-11-26T19:27:02.611Z,98781.66
2018-11-26T19:29:39.977Z,98777.34
2018-11-26T19:32:13.347Z,98784.28
2018-11-26T19:34:45.220Z,98779.50
2018-11-26T19:37:17.628Z,98782.43
2018-11-26T19:39:49.209Z,98784.73
2018-11-26T19:42:23.534Z,98787.89
2018-11-26T19:44:53.429Z,98785.97
2018-11-26T19:47:25.314Z,98780.20
2018-11-26T19:49:55.386Z,98790.18
2018-11-26T19:52:31.011Z,98791.88
2018-11-26T19:55:09.305Z,98796.77
2018-11-26T19:57:39.230Z,98804.55
2018-11-26T20:00:13.363Z,98807.53
2018-11-26T20:02:42.821Z,98810.61
2018-11-26T20:05:16.683Z,98812.87
2018-11-26T20:07:46.551Z,98820.81
2018-11-26T20:10:15.360Z,98822.72
2018-11-26T20:12:43.924Z,98821.16
2018-11-26T20:15:15.759Z,98825.47
2018-11-26T20:17:44.367Z,98837.81
2018-11-26T20:20:13.811Z,98838.88
2018-11-26T20:22:43.836Z,98841.05
2018-11-26T20:25:13.739Z,98843.83
2018-11-26T20:27:43.140Z,98842.41
2018-11-26T20:30:14.003Z,98851.04
2018-11-26T20:32:44.974Z,98850.91
2018-11-26T20:35:13.775Z,98864.57
2018-11-26T20:37:42.870Z,98858.11
2018-11-26T20:40:16.438Z,98861.97
2018-11-26T20:42:50.799Z,98862.99
2018-11-26T20:45:19.907Z,98865.51
2018-11-26T20:47:50.172Z,98859.09
2018-11-26T20:50:21.960Z,98859.88
2018-11-26T20:52:51.707Z,98863.81
2018-11-26T20:55:21.447Z,98865.16
2018-11-26T20:57:52.608Z,98864.52
2018-11-26T21:00:23.354Z,98871.07
2018-11-26T21:02:54.096Z,98867.99
2018-11-26T21:05:23.604Z,98863.22
2018-11-26T21:07:53.034Z,98870.38
2018-11-26T21:10:22.038Z,98868.61
2018-11-26T21:12:51.162Z,98875.02
2018-11-26T21:15:20.208Z,98880.97
2018-11-26T21:17:51.896Z,98881.17
2018-11-26T21:20:26.987Z,98891.52
2018-11-26T21:22:57.293Z,98888.50
2018-11-26T21:25:25.347Z,98892.12
2018-11-26T21:27:55.295Z,98891.80
2018-11-26T21:30:24.801Z,98880.87
2018-11-26T21:32:53.385Z,98883.03
2018-11-26T21:35:22.628Z,98879.58
2018-11-26T21:37:53.178Z,98882.88
2018-11-26T21:40:23.308Z,98886.21
2018-11-26T21:42:53.033Z,98891.98
2018-11-26T21:45:23.133Z,98888.18
2018-11-26T21:47:52.432Z,98897.19
2018-11-26T21:50:21.619Z,98895.25
2018-11-26T21:52:50.521Z,98897.21
2018-11-26T21:55:19.691Z,98899.55
2018-11-26T21:57:49.060Z,98897.78
2018-11-26T22:00:25.380Z,98905.38
2018-11-26T22:02:54.563Z,98907.66
2018-11-26T22:05:23.616Z,98907.80
2018-11-26T22:07:52.857Z,98907.73
2018-11-26T22:10:23.728Z,98913.13
2018-11-26T22:12:54.025Z,98917.03
2018-11-26T22:15:23.337Z,98916.28
2018-11-26T22:17:52.478Z,98915.91
2018-11-26T22:20:24.865Z,98914.34
2018-11-26T22:22:54.546Z,98919.97
2018-11-26T22:25:23.217Z,98923.64
2018-11-26T22:27:52.731Z,98919.25
2018-11-26T22:30:27.244Z,98923.64
2018-11-26T22:32:56.149Z,98923.28
2018-11-26T22:35:25.157Z,98923.34
2018-11-26T22:37:54.750Z,98930.22
2018-11-26T22:40:24.343Z,98939.13
2018-11-26T22:42:52.975Z,98932.73
2018-11-26T22:45:28.055Z,98938.99
2018-11-26T22:48:06.775Z,98938.77
2018-11-26T22:50:36.786Z,98939.61
2018-11-26T22:53:06.144Z,98941.19
2018-11-26T22:55:34.780Z,98942.72
2018-11-26T22:58:03.558Z,98945.80
2018-11-26T23:00:48.560Z,98949.04
2018-11-26T23:03:18.519Z,98954.02
2018-11-26T23:05:47.515Z,98953.55
2018-11-26T23:08:16.873Z,98966.78
2018-11-26T23:10:45.476Z,98961.28
2018-11-26T23:13:14.471Z,98968.22
2018-11-26T23:15:43.408Z,98964.95
2018-11-26T23:18:13.826Z,98964.16
2018-11-26T23:20:43.689Z,98967.56
2018-11-26T23:23:12.254Z,98966.66
2018-11-26T23:25:41.071Z,98955.91
2018-11-26T23:28:10.502Z,98962.49
2018-11-26T23:30:39.358Z,98964.72
2018-11-26T23:33:08.418Z,98965.44
2018-11-26T23:35:37.330Z,98973.88
2018-11-26T23:38:06.508Z,98970.16
2018-11-26T23:40:35.877Z,98971.92
2018-11-26T23:43:05.252Z,98973.46
2018-11-26T23:45:34.588Z,98982.58
2018-11-26T23:48:04.421Z,98977.25
2018-11-26T23:50:33.246Z,98979.51
2018-11-26T23:53:01.831Z,98980.46
2018-11-26T23:55:30.985Z,98984.35
2018-11-26T23:58:00.595Z,98978.78
